sensor_id;sensor_type;location;lat;lon;timestamp;P1;durP1;ratioP1;P2;durP2;ratioP2
5821;SDS011;2937;48.562;8.022;2022-12-18T00:01:40;118.20;;;32.60;;
5821;SDS011;2937;48.562;8.022;2022-12-18T00:06:33;117.70;;;31.93;;
5821;SDS011;2937;48.562;8.022;2022-12-18T00:11:28;132.37;;;32.47;;
5821;SDS011;2937;48.562;8.022;2022-12-18T00:16:22;131.73;;;33.30;;
5821;SDS011;2937;48.562;8.022;2022-12-18T00:21:15;109.30;;;31.27;;
5821;SDS011;2937;48.562;8.022;2022-12-18T00:26:10;161.47;;;30.70;;
5821;SDS011;2937;48.562;8.022;2022-12-18T00:31:08;101.13;;;29.57;;
5821;SDS011;2937;48.562;8.022;2022-12-18T00:36:01;111.43;;;28.13;;
5821;SDS011;2937;48.562;8.022;2022-12-18T00:40:56;139.57;;;32.10;;
5821;SDS011;2937;48.562;8.022;2022-12-18T00:45:48;109.30;;;30.10;;
5821;SDS011;2937;48.562;8.022;2022-12-18T00:50:42;117.40;;;31.10;;
5821;SDS011;2937;48.562;8.022;2022-12-18T00:55:35;97.23;;;30.70;;
5821;SDS011;2937;48.562;8.022;2022-12-18T01:00:29;113.63;;;31.03;;
5821;SDS011;2937;48.562;8.022;2022-12-18T01:05:21;118.90;;;32.83;;
5821;SDS011;2937;48.562;8.022;2022-12-18T01:10:16;129.83;;;30.67;;
5821;SDS011;2937;48.562;8.022;2022-12-18T01:15:09;140.33;;;36.93;;
5821;SDS011;2937;48.562;8.022;2022-12-18T01:20:02;116.87;;;30.73;;
5821;SDS011;2937;48.562;8.022;2022-12-18T01:24:56;130.03;;;30.10;;
5821;SDS011;2937;48.562;8.022;2022-12-18T01:29:50;124.50;;;30.73;;
5821;SDS011;2937;48.562;8.022;2022-12-18T01:34:43;129.10;;;29.83;;
5821;SDS011;2937;48.562;8.022;2022-12-18T01:39:36;121.00;;;28.70;;
5821;SDS011;2937;48.562;8.022;2022-12-18T01:44:53;122.20;;;29.43;;
5821;SDS011;2937;48.562;8.022;2022-12-18T01:49:46;124.90;;;30.47;;
5821;SDS011;2937;48.562;8.022;2022-12-18T01:54:38;125.17;;;28.17;;
5821;SDS011;2937;48.562;8.022;2022-12-18T01:59:31;104.50;;;30.30;;
5821;SDS011;2937;48.562;8.022;2022-12-18T02:04:26;194.07;;;33.77;;
5821;SDS011;2937;48.562;8.022;2022-12-18T02:09:20;138.53;;;34.13;;
5821;SDS011;2937;48.562;8.022;2022-12-18T02:14:17;126.20;;;33.13;;
5821;SDS011;2937;48.562;8.022;2022-12-18T02:19:15;126.33;;;33.53;;
5821;SDS011;2937;48.562;8.022;2022-12-18T02:24:17;186.30;;;31.60;;
5821;SDS011;2937;48.562;8.022;2022-12-18T02:29:18;243.03;;;35.20;;
5821;SDS011;2937;48.562;8.022;2022-12-18T02:34:13;122.53;;;31.67;;
5821;SDS011;2937;48.562;8.022;2022-12-18T02:39:07;106.33;;;31.40;;
5821;SDS011;2937;48.562;8.022;2022-12-18T02:44:08;156.23;;;32.27;;
5821;SDS011;2937;48.562;8.022;2022-12-18T02:49:04;115.73;;;31.23;;
5821;SDS011;2937;48.562;8.022;2022-12-18T02:53:59;152.13;;;28.63;;
5821;SDS011;2937;48.562;8.022;2022-12-18T02:58:57;104.93;;;25.73;;
5821;SDS011;2937;48.562;8.022;2022-12-18T03:04:01;102.83;;;26.77;;
5821;SDS011;2937;48.562;8.022;2022-12-18T03:08:58;137.43;;;28.50;;
5821;SDS011;2937;48.562;8.022;2022-12-18T03:13:52;110.83;;;27.23;;
5821;SDS011;2937;48.562;8.022;2022-12-18T03:18:48;95.20;;;27.67;;
5821;SDS011;2937;48.562;8.022;2022-12-18T03:23:42;101.63;;;29.30;;
5821;SDS011;2937;48.562;8.022;2022-12-18T03:28:40;93.93;;;27.33;;
5821;SDS011;2937;48.562;8.022;2022-12-18T03:33:35;112.20;;;27.27;;
5821;SDS011;2937;48.562;8.022;2022-12-18T03:38:31;128.07;;;28.27;;
5821;SDS011;2937;48.562;8.022;2022-12-18T03:43:26;82.80;;;26.83;;
5821;SDS011;2937;48.562;8.022;2022-12-18T03:48:26;123.13;;;28.80;;
5821;SDS011;2937;48.562;8.022;2022-12-18T03:53:25;101.83;;;26.90;;
5821;SDS011;2937;48.562;8.022;2022-12-18T03:58:23;101.43;;;27.20;;
5821;SDS011;2937;48.562;8.022;2022-12-18T04:03:25;140.80;;;28.93;;
5821;SDS011;2937;48.562;8.022;2022-12-18T04:08:21;92.10;;;24.10;;
5821;SDS011;2937;48.562;8.022;2022-12-18T04:13:27;94.30;;;26.43;;
5821;SDS011;2937;48.562;8.022;2022-12-18T04:18:23;113.97;;;26.93;;
5821;SDS011;2937;48.562;8.022;2022-12-18T04:23:17;141.37;;;27.83;;
5821;SDS011;2937;48.562;8.022;2022-12-18T04:28:11;96.80;;;23.87;;
5821;SDS011;2937;48.562;8.022;2022-12-18T04:33:03;98.27;;;27.37;;
5821;SDS011;2937;48.562;8.022;2022-12-18T04:37:56;129.87;;;27.70;;
5821;SDS011;2937;48.562;8.022;2022-12-18T04:42:50;81.63;;;26.13;;
5821;SDS011;2937;48.562;8.022;2022-12-18T04:47:42;108.70;;;25.00;;
5821;SDS011;2937;48.562;8.022;2022-12-18T04:52:35;76.20;;;24.97;;
5821;SDS011;2937;48.562;8.022;2022-12-18T04:57:27;89.90;;;27.27;;
5821;SDS011;2937;48.562;8.022;2022-12-18T05:02:22;177.70;;;27.23;;
5821;SDS011;2937;48.562;8.022;2022-12-18T05:07:14;94.03;;;24.47;;
5821;SDS011;2937;48.562;8.022;2022-12-18T05:12:07;90.83;;;26.40;;
5821;SDS011;2937;48.562;8.022;2022-12-18T05:17:00;81.93;;;23.87;;
5821;SDS011;2937;48.562;8.022;2022-12-18T05:21:54;83.50;;;24.97;;
5821;SDS011;2937;48.562;8.022;2022-12-18T05:26:46;96.27;;;26.00;;
5821;SDS011;2937;48.562;8.022;2022-12-18T05:31:39;67.27;;;23.00;;
5821;SDS011;2937;48.562;8.022;2022-12-18T05:36:33;73.73;;;23.37;;
5821;SDS011;2937;48.562;8.022;2022-12-18T05:41:27;93.60;;;25.70;;
5821;SDS011;2937;48.562;8.022;2022-12-18T05:46:20;95.93;;;24.17;;
5821;SDS011;2937;48.562;8.022;2022-12-18T05:51:14;96.77;;;24.00;;
5821;SDS011;2937;48.562;8.022;2022-12-18T05:56:07;80.67;;;24.70;;
5821;SDS011;2937;48.562;8.022;2022-12-18T06:01:06;73.60;;;22.27;;
5821;SDS011;2937;48.562;8.022;2022-12-18T06:05:59;79.30;;;22.57;;
5821;SDS011;2937;48.562;8.022;2022-12-18T06:10:52;76.00;;;22.37;;
5821;SDS011;2937;48.562;8.022;2022-12-18T06:15:44;73.90;;;23.53;;
5821;SDS011;2937;48.562;8.022;2022-12-18T06:20:38;68.57;;;23.67;;
5821;SDS011;2937;48.562;8.022;2022-12-18T06:25:32;71.03;;;22.97;;
5821;SDS011;2937;48.562;8.022;2022-12-18T06:30:25;71.40;;;22.93;;
5821;SDS011;2937;48.562;8.022;2022-12-18T06:35:17;76.13;;;21.60;;
5821;SDS011;2937;48.562;8.022;2022-12-18T06:40:12;59.07;;;21.00;;
5821;SDS011;2937;48.562;8.022;2022-12-18T06:45:05;67.80;;;22.70;;
5821;SDS011;2937;48.562;8.022;2022-12-18T06:49:58;65.00;;;22.20;;
5821;SDS011;2937;48.562;8.022;2022-12-18T06:54:50;59.83;;;21.10;;
5821;SDS011;2937;48.562;8.022;2022-12-18T06:59:44;71.33;;;22.03;;
5821;SDS011;2937;48.562;8.022;2022-12-18T07:04:37;67.80;;;20.97;;
5821;SDS011;2937;48.562;8.022;2022-12-18T07:09:29;57.07;;;15.87;;
5821;SDS011;2937;48.562;8.022;2022-12-18T07:14:22;86.37;;;25.33;;
5821;SDS011;2937;48.562;8.022;2022-12-18T07:19:16;91.00;;;17.30;;
5821;SDS011;2937;48.562;8.022;2022-12-18T07:24:08;44.93;;;17.57;;
5821;SDS011;2937;48.562;8.022;2022-12-18T07:29:01;69.53;;;23.30;;
5821;SDS011;2937;48.562;8.022;2022-12-18T07:33:53;69.47;;;22.70;;
5821;SDS011;2937;48.562;8.022;2022-12-18T07:38:47;81.30;;;23.40;;
5821;SDS011;2937;48.562;8.022;2022-12-18T07:43:40;60.57;;;21.10;;
5821;SDS011;2937;48.562;8.022;2022-12-18T07:48:34;71.60;;;23.00;;
5821;SDS011;2937;48.562;8.022;2022-12-18T07:53:27;67.80;;;20.30;;
5821;SDS011;2937;48.562;8.022;2022-12-18T07:58:21;78.33;;;27.47;;
5821;SDS011;2937;48.562;8.022;2022-12-18T08:03:13;62.97;;;22.97;;
5821;SDS011;2937;48.562;8.022;2022-12-18T08:08:06;60.60;;;20.73;;
5821;SDS011;2937;48.562;8.022;2022-12-18T08:12:59;61.37;;;23.37;;
5821;SDS011;2937;48.562;8.022;2022-12-18T08:17:57;61.13;;;20.87;;
5821;SDS011;2937;48.562;8.022;2022-12-18T08:22:49;74.37;;;26.50;;
5821;SDS011;2937;48.562;8.022;2022-12-18T08:27:42;83.03;;;30.50;;
5821;SDS011;2937;48.562;8.022;2022-12-18T08:32:34;62.73;;;21.97;;
5821;SDS011;2937;48.562;8.022;2022-12-18T08:37:29;58.80;;;21.70;;
5821;SDS011;2937;48.562;8.022;2022-12-18T08:42:21;73.63;;;23.90;;
5821;SDS011;2937;48.562;8.022;2022-12-18T08:47:31;59.07;;;23.37;;
5821;SDS011;2937;48.562;8.022;2022-12-18T08:52:24;66.00;;;22.40;;
5821;SDS011;2937;48.562;8.022;2022-12-18T08:57:18;66.20;;;23.43;;
5821;SDS011;2937;48.562;8.022;2022-12-18T09:02:10;76.00;;;22.80;;
5821;SDS011;2937;48.562;8.022;2022-12-18T09:07:04;61.00;;;21.20;;
5821;SDS011;2937;48.562;8.022;2022-12-18T09:11:56;54.87;;;23.77;;
5821;SDS011;2937;48.562;8.022;2022-12-18T09:16:50;56.20;;;20.80;;
5821;SDS011;2937;48.562;8.022;2022-12-18T09:21:43;58.10;;;22.67;;
5821;SDS011;2937;48.562;8.022;2022-12-18T09:26:38;75.47;;;22.90;;
5821;SDS011;2937;48.562;8.022;2022-12-18T09:31:33;79.80;;;21.80;;
5821;SDS011;2937;48.562;8.022;2022-12-18T09:36:27;73.17;;;22.80;;
5821;SDS011;2937;48.562;8.022;2022-12-18T09:41:27;85.87;;;21.33;;
5821;SDS011;2937;48.562;8.022;2022-12-18T09:46:26;62.03;;;22.80;;
5821;SDS011;2937;48.562;8.022;2022-12-18T09:51:21;102.67;;;22.17;;
5821;SDS011;2937;48.562;8.022;2022-12-18T09:56:18;92.50;;;22.10;;
5821;SDS011;2937;48.562;8.022;2022-12-18T10:01:14;85.53;;;20.97;;
5821;SDS011;2937;48.562;8.022;2022-12-18T10:06:11;54.97;;;20.20;;
5821;SDS011;2937;48.562;8.022;2022-12-18T10:11:14;63.90;;;22.60;;
5821;SDS011;2937;48.562;8.022;2022-12-18T10:16:11;58.07;;;22.43;;
5821;SDS011;2937;48.562;8.022;2022-12-18T10:21:06;56.70;;;23.50;;
5821;SDS011;2937;48.562;8.022;2022-12-18T10:26:03;58.50;;;23.83;;
5821;SDS011;2937;48.562;8.022;2022-12-18T10:30:56;80.90;;;24.13;;
5821;SDS011;2937;48.562;8.022;2022-12-18T10:35:50;80.63;;;26.67;;
5821;SDS011;2937;48.562;8.022;2022-12-18T10:40:51;68.07;;;27.20;;
5821;SDS011;2937;48.562;8.022;2022-12-18T10:45:44;67.10;;;26.37;;
5821;SDS011;2937;48.562;8.022;2022-12-18T10:50:51;70.10;;;24.37;;
5821;SDS011;2937;48.562;8.022;2022-12-18T10:56:03;70.73;;;25.43;;
5821;SDS011;2937;48.562;8.022;2022-12-18T11:01:07;75.00;;;26.33;;
5821;SDS011;2937;48.562;8.022;2022-12-18T11:06:04;64.80;;;25.60;;
5821;SDS011;2937;48.562;8.022;2022-12-18T11:10:57;61.00;;;27.03;;
5821;SDS011;2937;48.562;8.022;2022-12-18T11:15:50;61.60;;;23.77;;
5821;SDS011;2937;48.562;8.022;2022-12-18T11:20:43;68.20;;;28.70;;
5821;SDS011;2937;48.562;8.022;2022-12-18T11:25:54;96.17;;;37.07;;
5821;SDS011;2937;48.562;8.022;2022-12-18T11:30:47;81.00;;;29.00;;
5821;SDS011;2937;48.562;8.022;2022-12-18T11:35:42;63.50;;;27.93;;
5821;SDS011;2937;48.562;8.022;2022-12-18T11:40:37;73.23;;;29.20;;
5821;SDS011;2937;48.562;8.022;2022-12-18T11:45:34;79.27;;;31.23;;
5821;SDS011;2937;48.562;8.022;2022-12-18T11:50:29;75.90;;;29.33;;
5821;SDS011;2937;48.562;8.022;2022-12-18T11:55:34;76.13;;;29.30;;
5821;SDS011;2937;48.562;8.022;2022-12-18T12:00:29;65.50;;;28.27;;
5821;SDS011;2937;48.562;8.022;2022-12-18T12:05:28;66.43;;;28.20;;
5821;SDS011;2937;48.562;8.022;2022-12-18T12:10:27;67.50;;;27.30;;
5821;SDS011;2937;48.562;8.022;2022-12-18T12:15:23;62.80;;;27.97;;
5821;SDS011;2937;48.562;8.022;2022-12-18T12:20:20;59.77;;;27.33;;
5821;SDS011;2937;48.562;8.022;2022-12-18T12:25:18;69.27;;;28.60;;
5821;SDS011;2937;48.562;8.022;2022-12-18T12:30:16;72.37;;;27.47;;
5821;SDS011;2937;48.562;8.022;2022-12-18T12:35:12;63.30;;;26.50;;
5821;SDS011;2937;48.562;8.022;2022-12-18T12:40:10;64.37;;;29.33;;
5821;SDS011;2937;48.562;8.022;2022-12-18T12:45:26;63.70;;;27.90;;
5821;SDS011;2937;48.562;8.022;2022-12-18T12:50:20;62.73;;;26.47;;
5821;SDS011;2937;48.562;8.022;2022-12-18T12:55:14;65.37;;;26.47;;
5821;SDS011;2937;48.562;8.022;2022-12-18T13:00:09;70.23;;;30.60;;
5821;SDS011;2937;48.562;8.022;2022-12-18T13:05:06;79.13;;;30.90;;
5821;SDS011;2937;48.562;8.022;2022-12-18T13:10:20;71.80;;;31.87;;
5821;SDS011;2937;48.562;8.022;2022-12-18T13:15:20;65.30;;;30.40;;
5821;SDS011;2937;48.562;8.022;2022-12-18T13:20:14;63.00;;;27.17;;
5821;SDS011;2937;48.562;8.022;2022-12-18T13:25:26;60.70;;;27.90;;
5821;SDS011;2937;48.562;8.022;2022-12-18T13:35:39;68.80;;;31.03;;
5821;SDS011;2937;48.562;8.022;2022-12-18T13:45:45;69.63;;;30.97;;
5821;SDS011;2937;48.562;8.022;2022-12-18T13:50:41;68.00;;;29.40;;
5821;SDS011;2937;48.562;8.022;2022-12-18T13:55:34;73.57;;;30.07;;
5821;SDS011;2937;48.562;8.022;2022-12-18T14:00:28;71.23;;;30.33;;
5821;SDS011;2937;48.562;8.022;2022-12-18T14:05:21;78.80;;;32.03;;
5821;SDS011;2937;48.562;8.022;2022-12-18T14:10:16;84.37;;;34.23;;
5821;SDS011;2937;48.562;8.022;2022-12-18T14:15:30;79.53;;;32.80;;
5821;SDS011;2937;48.562;8.022;2022-12-18T14:20:25;78.83;;;34.20;;
5821;SDS011;2937;48.562;8.022;2022-12-18T14:25:21;110.53;;;39.90;;
5821;SDS011;2937;48.562;8.022;2022-12-18T14:30:24;78.83;;;31.70;;
5821;SDS011;2937;48.562;8.022;2022-12-18T14:35:17;81.47;;;32.53;;
5821;SDS011;2937;48.562;8.022;2022-12-18T14:40:11;103.03;;;41.57;;
5821;SDS011;2937;48.562;8.022;2022-12-18T14:50:19;85.07;;;33.10;;
5821;SDS011;2937;48.562;8.022;2022-12-18T14:55:14;92.80;;;34.27;;
5821;SDS011;2937;48.562;8.022;2022-12-18T15:00:11;96.87;;;33.77;;
5821;SDS011;2937;48.562;8.022;2022-12-18T15:05:16;80.97;;;31.40;;
5821;SDS011;2937;48.562;8.022;2022-12-18T15:10:11;107.23;;;33.70;;
5821;SDS011;2937;48.562;8.022;2022-12-18T15:15:05;95.83;;;33.73;;
5821;SDS011;2937;48.562;8.022;2022-12-18T15:19:58;107.73;;;36.97;;
5821;SDS011;2937;48.562;8.022;2022-12-18T15:24:51;97.87;;;34.13;;
5821;SDS011;2937;48.562;8.022;2022-12-18T15:29:48;91.90;;;33.13;;
5821;SDS011;2937;48.562;8.022;2022-12-18T15:34:51;85.93;;;30.20;;
5821;SDS011;2937;48.562;8.022;2022-12-18T15:39:53;85.43;;;30.07;;
5821;SDS011;2937;48.562;8.022;2022-12-18T15:44:47;92.67;;;31.33;;
5821;SDS011;2937;48.562;8.022;2022-12-18T15:49:40;93.70;;;31.50;;
5821;SDS011;2937;48.562;8.022;2022-12-18T15:54:32;102.50;;;33.63;;
5821;SDS011;2937;48.562;8.022;2022-12-18T15:59:43;87.47;;;31.80;;
5821;SDS011;2937;48.562;8.022;2022-12-18T16:04:36;78.07;;;30.30;;
5821;SDS011;2937;48.562;8.022;2022-12-18T16:09:29;104.33;;;36.40;;
5821;SDS011;2937;48.562;8.022;2022-12-18T16:14:23;100.03;;;34.83;;
5821;SDS011;2937;48.562;8.022;2022-12-18T16:19:17;105.27;;;36.27;;
5821;SDS011;2937;48.562;8.022;2022-12-18T16:24:14;92.17;;;33.80;;
5821;SDS011;2937;48.562;8.022;2022-12-18T16:29:07;170.93;;;55.20;;
5821;SDS011;2937;48.562;8.022;2022-12-18T16:34:10;103.57;;;36.37;;
5821;SDS011;2937;48.562;8.022;2022-12-18T16:39:02;119.67;;;43.50;;
5821;SDS011;2937;48.562;8.022;2022-12-18T16:43:56;98.23;;;36.20;;
5821;SDS011;2937;48.562;8.022;2022-12-18T16:48:49;126.90;;;42.17;;
5821;SDS011;2937;48.562;8.022;2022-12-18T16:53:41;119.90;;;44.07;;
5821;SDS011;2937;48.562;8.022;2022-12-18T16:58:35;115.57;;;41.30;;
5821;SDS011;2937;48.562;8.022;2022-12-18T17:03:30;97.23;;;38.30;;
5821;SDS011;2937;48.562;8.022;2022-12-18T17:08:23;128.03;;;45.70;;
5821;SDS011;2937;48.562;8.022;2022-12-18T17:13:15;118.83;;;47.30;;
5821;SDS011;2937;48.562;8.022;2022-12-18T17:18:15;117.17;;;41.80;;
5821;SDS011;2937;48.562;8.022;2022-12-18T17:23:09;117.50;;;41.97;;
5821;SDS011;2937;48.562;8.022;2022-12-18T17:28:02;113.57;;;39.27;;
5821;SDS011;2937;48.562;8.022;2022-12-18T17:32:56;117.00;;;39.87;;
5821;SDS011;2937;48.562;8.022;2022-12-18T17:37:49;115.40;;;39.50;;
5821;SDS011;2937;48.562;8.022;2022-12-18T17:42:43;124.80;;;41.13;;
5821;SDS011;2937;48.562;8.022;2022-12-18T17:47:35;122.73;;;42.63;;
5821;SDS011;2937;48.562;8.022;2022-12-18T17:52:28;105.97;;;39.23;;
5821;SDS011;2937;48.562;8.022;2022-12-18T17:57:22;117.73;;;42.47;;
5821;SDS011;2937;48.562;8.022;2022-12-18T18:02:16;98.27;;;37.17;;
5821;SDS011;2937;48.562;8.022;2022-12-18T18:07:09;113.83;;;40.50;;
5821;SDS011;2937;48.562;8.022;2022-12-18T18:12:02;99.77;;;36.80;;
5821;SDS011;2937;48.562;8.022;2022-12-18T18:17:12;112.30;;;39.80;;
5821;SDS011;2937;48.562;8.022;2022-12-18T18:22:06;135.37;;;45.87;;
5821;SDS011;2937;48.562;8.022;2022-12-18T18:26:59;146.77;;;46.30;;
5821;SDS011;2937;48.562;8.022;2022-12-18T18:31:52;128.00;;;42.10;;
5821;SDS011;2937;48.562;8.022;2022-12-18T18:36:45;105.93;;;38.30;;
5821;SDS011;2937;48.562;8.022;2022-12-18T18:41:38;128.87;;;38.23;;
5821;SDS011;2937;48.562;8.022;2022-12-18T18:46:35;104.03;;;37.03;;
5821;SDS011;2937;48.562;8.022;2022-12-18T18:51:28;105.97;;;37.00;;
5821;SDS011;2937;48.562;8.022;2022-12-18T18:56:25;114.10;;;38.43;;
5821;SDS011;2937;48.562;8.022;2022-12-18T19:01:39;96.67;;;37.20;;
5821;SDS011;2937;48.562;8.022;2022-12-18T19:06:32;105.90;;;38.30;;
5821;SDS011;2937;48.562;8.022;2022-12-18T19:11:26;112.43;;;37.13;;
5821;SDS011;2937;48.562;8.022;2022-12-18T19:16:37;126.37;;;40.90;;
5821;SDS011;2937;48.562;8.022;2022-12-18T19:21:31;119.83;;;42.67;;
5821;SDS011;2937;48.562;8.022;2022-12-18T19:26:25;117.53;;;40.80;;
5821;SDS011;2937;48.562;8.022;2022-12-18T19:31:19;130.47;;;42.10;;
5821;SDS011;2937;48.562;8.022;2022-12-18T19:36:20;135.50;;;42.87;;
5821;SDS011;2937;48.562;8.022;2022-12-18T19:41:15;118.50;;;41.20;;
5821;SDS011;2937;48.562;8.022;2022-12-18T19:46:09;123.67;;;41.37;;
5821;SDS011;2937;48.562;8.022;2022-12-18T19:51:03;118.23;;;41.63;;
5821;SDS011;2937;48.562;8.022;2022-12-18T19:55:56;132.17;;;41.47;;
5821;SDS011;2937;48.562;8.022;2022-12-18T20:00:50;118.13;;;43.17;;
5821;SDS011;2937;48.562;8.022;2022-12-18T20:05:43;129.90;;;47.03;;
5821;SDS011;2937;48.562;8.022;2022-12-18T20:10:35;112.50;;;40.53;;
5821;SDS011;2937;48.562;8.022;2022-12-18T20:15:28;121.27;;;41.37;;
5821;SDS011;2937;48.562;8.022;2022-12-18T20:20:22;117.30;;;42.20;;
5821;SDS011;2937;48.562;8.022;2022-12-18T20:25:15;113.17;;;41.90;;
5821;SDS011;2937;48.562;8.022;2022-12-18T20:30:08;130.53;;;45.80;;
5821;SDS011;2937;48.562;8.022;2022-12-18T20:35:00;130.73;;;44.83;;
5821;SDS011;2937;48.562;8.022;2022-12-18T20:39:56;117.87;;;43.87;;
5821;SDS011;2937;48.562;8.022;2022-12-18T20:44:50;113.03;;;41.23;;
5821;SDS011;2937;48.562;8.022;2022-12-18T20:49:42;115.93;;;39.50;;
5821;SDS011;2937;48.562;8.022;2022-12-18T20:54:36;112.60;;;41.93;;
5821;SDS011;2937;48.562;8.022;2022-12-18T20:59:30;130.80;;;44.37;;
5821;SDS011;2937;48.562;8.022;2022-12-18T21:04:22;133.03;;;49.60;;
5821;SDS011;2937;48.562;8.022;2022-12-18T21:09:15;145.90;;;49.87;;
5821;SDS011;2937;48.562;8.022;2022-12-18T21:14:08;132.33;;;45.47;;
5821;SDS011;2937;48.562;8.022;2022-12-18T21:19:02;135.33;;;46.80;;
5821;SDS011;2937;48.562;8.022;2022-12-18T21:23:55;123.93;;;44.73;;
5821;SDS011;2937;48.562;8.022;2022-12-18T21:28:51;128.97;;;42.30;;
5821;SDS011;2937;48.562;8.022;2022-12-18T21:33:44;122.37;;;41.80;;
5821;SDS011;2937;48.562;8.022;2022-12-18T21:38:39;122.80;;;44.07;;
5821;SDS011;2937;48.562;8.022;2022-12-18T21:43:32;115.57;;;42.63;;
5821;SDS011;2937;48.562;8.022;2022-12-18T21:48:48;120.03;;;44.13;;
5821;SDS011;2937;48.562;8.022;2022-12-18T21:53:42;114.47;;;43.10;;
5821;SDS011;2937;48.562;8.022;2022-12-18T21:58:37;126.27;;;46.30;;
5821;SDS011;2937;48.562;8.022;2022-12-18T22:03:47;118.33;;;43.70;;
5821;SDS011;2937;48.562;8.022;2022-12-18T22:08:41;110.07;;;43.87;;
5821;SDS011;2937;48.562;8.022;2022-12-18T22:13:34;116.17;;;44.97;;
5821;SDS011;2937;48.562;8.022;2022-12-18T22:18:27;116.30;;;44.47;;
5821;SDS011;2937;48.562;8.022;2022-12-18T22:23:19;122.40;;;43.03;;
5821;SDS011;2937;48.562;8.022;2022-12-18T22:28:13;119.17;;;44.90;;
5821;SDS011;2937;48.562;8.022;2022-12-18T22:33:23;115.53;;;42.97;;
5821;SDS011;2937;48.562;8.022;2022-12-18T22:38:15;109.87;;;43.07;;
5821;SDS011;2937;48.562;8.022;2022-12-18T22:43:08;109.83;;;42.70;;
5821;SDS011;2937;48.562;8.022;2022-12-18T22:48:02;111.90;;;43.50;;
5821;SDS011;2937;48.562;8.022;2022-12-18T22:52:55;109.87;;;41.80;;
5821;SDS011;2937;48.562;8.022;2022-12-18T22:57:47;115.80;;;43.37;;
5821;SDS011;2937;48.562;8.022;2022-12-18T23:02:41;114.83;;;43.70;;
5821;SDS011;2937;48.562;8.022;2022-12-18T23:07:35;112.63;;;42.50;;
5821;SDS011;2937;48.562;8.022;2022-12-18T23:12:27;110.37;;;42.20;;
5821;SDS011;2937;48.562;8.022;2022-12-18T23:17:20;115.20;;;44.67;;
5821;SDS011;2937;48.562;8.022;2022-12-18T23:22:13;108.50;;;43.03;;
5821;SDS011;2937;48.562;8.022;2022-12-18T23:27:07;112.90;;;42.30;;
5821;SDS011;2937;48.562;8.022;2022-12-18T23:32:02;108.23;;;42.57;;
5821;SDS011;2937;48.562;8.022;2022-12-18T23:36:55;113.73;;;42.87;;
5821;SDS011;2937;48.562;8.022;2022-12-18T23:41:47;125.03;;;44.70;;
5821;SDS011;2937;48.562;8.022;2022-12-18T23:46:41;109.77;;;42.53;;
5821;SDS011;2937;48.562;8.022;2022-12-18T23:51:34;115.13;;;44.77;;
5821;SDS011;2937;48.562;8.022;2022-12-18T23:56:28;123.97;;;46.07;;
